sensor_id;sensor_type;location;lat;lon;timestamp;P1;durP1;ratioP1;P2;durP2;ratioP2
59207;SDS011;44977;53.132;6.408;2023-07-29T00:03:53;9.48;;;6.32;;
59207;SDS011;44977;53.132;6.408;2023-07-29T00:08:54;9.77;;;7.22;;
59207;SDS011;44977;53.132;6.408;2023-07-29T00:13:54;9.52;;;7.25;;
59207;SDS011;44977;53.132;6.408;2023-07-29T00:18:55;9.75;;;7.07;;
59207;SDS011;44977;53.132;6.408;2023-07-29T00:23:56;9.75;;;6.82;;
59207;SDS011;44977;53.132;6.408;2023-07-29T00:29:01;10.35;;;7.53;;
59207;SDS011;44977;53.132;6.408;2023-07-29T00:34:01;11.25;;;7.30;;
59207;SDS011;44977;53.132;6.408;2023-07-29T00:39:02;9.63;;;7.03;;
59207;SDS011;44977;53.132;6.408;2023-07-29T00:44:03;10.40;;;7.40;;
59207;SDS011;44977;53.132;6.408;2023-07-29T00:49:04;9.77;;;7.70;;
59207;SDS011;44977;53.132;6.408;2023-07-29T00:54:05;10.75;;;7.68;;
59207;SDS011;44977;53.132;6.408;2023-07-29T00:59:05;10.48;;;7.45;;
59207;SDS011;44977;53.132;6.408;2023-07-29T01:04:06;9.95;;;7.97;;
59207;SDS011;44977;53.132;6.408;2023-07-29T01:20:03;11.13;;;8.55;;
59207;SDS011;44977;53.132;6.408;2023-07-29T01:25:09;11.25;;;8.43;;
59207;SDS011;44977;53.132;6.408;2023-07-29T01:30:10;11.43;;;9.20;;
59207;SDS011;44977;53.132;6.408;2023-07-29T01:40:26;10.95;;;8.68;;
59207;SDS011;44977;53.132;6.408;2023-07-29T01:45:28;11.23;;;9.32;;
59207;SDS011;44977;53.132;6.408;2023-07-29T01:50:31;11.75;;;8.77;;
59207;SDS011;44977;53.132;6.408;2023-07-29T01:55:32;10.23;;;8.32;;
59207;SDS011;44977;53.132;6.408;2023-07-29T02:00:33;12.10;;;9.20;;
59207;SDS011;44977;53.132;6.408;2023-07-29T02:05:34;11.35;;;9.05;;
59207;SDS011;44977;53.132;6.408;2023-07-29T02:10:34;11.63;;;9.07;;
59207;SDS011;44977;53.132;6.408;2023-07-29T02:15:35;11.80;;;9.18;;
59207;SDS011;44977;53.132;6.408;2023-07-29T02:20:36;10.15;;;8.32;;
59207;SDS011;44977;53.132;6.408;2023-07-29T02:25:37;12.05;;;9.40;;
59207;SDS011;44977;53.132;6.408;2023-07-29T02:30:41;12.52;;;9.18;;
59207;SDS011;44977;53.132;6.408;2023-07-29T02:35:44;11.20;;;8.82;;
59207;SDS011;44977;53.132;6.408;2023-07-29T02:40:45;11.00;;;8.70;;
59207;SDS011;44977;53.132;6.408;2023-07-29T02:45:45;12.07;;;9.23;;
59207;SDS011;44977;53.132;6.408;2023-07-29T02:50:46;12.23;;;8.65;;
59207;SDS011;44977;53.132;6.408;2023-07-29T02:55:47;11.93;;;8.88;;
59207;SDS011;44977;53.132;6.408;2023-07-29T03:00:47;11.13;;;8.95;;
59207;SDS011;44977;53.132;6.408;2023-07-29T03:05:48;11.82;;;9.38;;
59207;SDS011;44977;53.132;6.408;2023-07-29T03:10:49;10.45;;;8.55;;
59207;SDS011;44977;53.132;6.408;2023-07-29T03:15:50;11.70;;;8.82;;
59207;SDS011;44977;53.132;6.408;2023-07-29T03:20:51;11.13;;;8.60;;
59207;SDS011;44977;53.132;6.408;2023-07-29T03:25:51;11.18;;;8.52;;
59207;SDS011;44977;53.132;6.408;2023-07-29T03:30:56;12.63;;;8.95;;
59207;SDS011;44977;53.132;6.408;2023-07-29T03:35:57;11.20;;;8.23;;
59207;SDS011;44977;53.132;6.408;2023-07-29T03:40:58;11.00;;;8.18;;
59207;SDS011;44977;53.132;6.408;2023-07-29T03:45:59;10.77;;;8.05;;
59207;SDS011;44977;53.132;6.408;2023-07-29T03:51:00;12.93;;;8.38;;
59207;SDS011;44977;53.132;6.408;2023-07-29T03:56:01;11.98;;;7.88;;
59207;SDS011;44977;53.132;6.408;2023-07-29T04:01:02;10.02;;;6.60;;
59207;SDS011;44977;53.132;6.408;2023-07-29T04:06:04;11.65;;;7.65;;
59207;SDS011;44977;53.132;6.408;2023-07-29T04:11:05;12.20;;;7.90;;
59207;SDS011;44977;53.132;6.408;2023-07-29T04:16:06;10.02;;;6.82;;
59207;SDS011;44977;53.132;6.408;2023-07-29T04:21:07;10.13;;;7.28;;
59207;SDS011;44977;53.132;6.408;2023-07-29T04:26:08;10.00;;;6.72;;
59207;SDS011;44977;53.132;6.408;2023-07-29T04:31:08;9.70;;;6.57;;
59207;SDS011;44977;53.132;6.408;2023-07-29T04:36:09;8.95;;;6.30;;
59207;SDS011;44977;53.132;6.408;2023-07-29T04:41:10;9.60;;;6.10;;
59207;SDS011;44977;53.132;6.408;2023-07-29T04:46:11;9.98;;;5.97;;
59207;SDS011;44977;53.132;6.408;2023-07-29T04:51:13;10.75;;;6.10;;
59207;SDS011;44977;53.132;6.408;2023-07-29T04:56:13;10.65;;;6.30;;
59207;SDS011;44977;53.132;6.408;2023-07-29T05:01:14;10.45;;;5.68;;
59207;SDS011;44977;53.132;6.408;2023-07-29T05:06:15;9.65;;;5.80;;
59207;SDS011;44977;53.132;6.408;2023-07-29T05:11:15;9.30;;;5.55;;
59207;SDS011;44977;53.132;6.408;2023-07-29T05:16:16;9.32;;;5.53;;
59207;SDS011;44977;53.132;6.408;2023-07-29T05:21:17;8.93;;;5.22;;
59207;SDS011;44977;53.132;6.408;2023-07-29T05:26:18;8.63;;;4.82;;
59207;SDS011;44977;53.132;6.408;2023-07-29T05:31:18;8.73;;;4.95;;
59207;SDS011;44977;53.132;6.408;2023-07-29T05:36:19;11.02;;;4.88;;
59207;SDS011;44977;53.132;6.408;2023-07-29T05:41:20;10.07;;;4.82;;
59207;SDS011;44977;53.132;6.408;2023-07-29T05:46:21;9.23;;;4.60;;
59207;SDS011;44977;53.132;6.408;2023-07-29T05:51:22;7.95;;;4.20;;
59207;SDS011;44977;53.132;6.408;2023-07-29T05:56:22;7.53;;;3.70;;
59207;SDS011;44977;53.132;6.408;2023-07-29T06:01:23;7.88;;;4.07;;
59207;SDS011;44977;53.132;6.408;2023-07-29T06:06:24;8.15;;;3.83;;
59207;SDS011;44977;53.132;6.408;2023-07-29T06:11:24;8.07;;;4.15;;
59207;SDS011;44977;53.132;6.408;2023-07-29T06:16:25;9.52;;;3.90;;
59207;SDS011;44977;53.132;6.408;2023-07-29T06:21:26;7.43;;;3.47;;
59207;SDS011;44977;53.132;6.408;2023-07-29T06:26:27;8.27;;;3.83;;
59207;SDS011;44977;53.132;6.408;2023-07-29T06:31:28;9.02;;;3.90;;
59207;SDS011;44977;53.132;6.408;2023-07-29T06:36:29;8.52;;;3.30;;
59207;SDS011;44977;53.132;6.408;2023-07-29T06:41:30;7.50;;;3.40;;
59207;SDS011;44977;53.132;6.408;2023-07-29T06:46:31;9.10;;;3.42;;
59207;SDS011;44977;53.132;6.408;2023-07-29T06:51:32;8.43;;;3.38;;
59207;SDS011;44977;53.132;6.408;2023-07-29T06:56:34;8.50;;;3.90;;
59207;SDS011;44977;53.132;6.408;2023-07-29T07:01:35;10.05;;;4.10;;
59207;SDS011;44977;53.132;6.408;2023-07-29T07:06:36;8.90;;;3.70;;
59207;SDS011;44977;53.132;6.408;2023-07-29T07:11:36;10.38;;;4.32;;
59207;SDS011;44977;53.132;6.408;2023-07-29T07:16:37;11.63;;;4.53;;
59207;SDS011;44977;53.132;6.408;2023-07-29T07:21:39;9.50;;;4.65;;
59207;SDS011;44977;53.132;6.408;2023-07-29T07:26:40;10.57;;;4.63;;
59207;SDS011;44977;53.132;6.408;2023-07-29T07:31:41;8.98;;;4.35;;
59207;SDS011;44977;53.132;6.408;2023-07-29T07:36:49;10.05;;;5.22;;
59207;SDS011;44977;53.132;6.408;2023-07-29T07:41:50;10.73;;;5.50;;
59207;SDS011;44977;53.132;6.408;2023-07-29T07:46:50;10.20;;;5.20;;
59207;SDS011;44977;53.132;6.408;2023-07-29T07:51:51;10.38;;;5.18;;
59207;SDS011;44977;53.132;6.408;2023-07-29T07:56:52;9.65;;;4.70;;
59207;SDS011;44977;53.132;6.408;2023-07-29T08:01:52;10.43;;;5.22;;
59207;SDS011;44977;53.132;6.408;2023-07-29T08:06:53;10.68;;;4.78;;
59207;SDS011;44977;53.132;6.408;2023-07-29T08:11:54;10.05;;;4.00;;
59207;SDS011;44977;53.132;6.408;2023-07-29T08:16:54;9.63;;;4.15;;
59207;SDS011;44977;53.132;6.408;2023-07-29T08:21:55;8.52;;;4.03;;
59207;SDS011;44977;53.132;6.408;2023-07-29T08:26:56;8.82;;;3.53;;
59207;SDS011;44977;53.132;6.408;2023-07-29T08:31:56;9.38;;;3.22;;
59207;SDS011;44977;53.132;6.408;2023-07-29T08:36:57;8.52;;;2.85;;
59207;SDS011;44977;53.132;6.408;2023-07-29T08:42:02;8.30;;;2.67;;
59207;SDS011;44977;53.132;6.408;2023-07-29T08:47:07;6.28;;;2.15;;
59207;SDS011;44977;53.132;6.408;2023-07-29T08:52:08;6.78;;;2.53;;
59207;SDS011;44977;53.132;6.408;2023-07-29T08:57:10;6.00;;;2.50;;
59207;SDS011;44977;53.132;6.408;2023-07-29T09:02:10;6.13;;;2.47;;
59207;SDS011;44977;53.132;6.408;2023-07-29T09:07:11;7.88;;;2.45;;
59207;SDS011;44977;53.132;6.408;2023-07-29T09:12:12;7.35;;;2.42;;
59207;SDS011;44977;53.132;6.408;2023-07-29T09:17:13;4.93;;;1.95;;
59207;SDS011;44977;53.132;6.408;2023-07-29T09:22:17;6.63;;;2.00;;
59207;SDS011;44977;53.132;6.408;2023-07-29T09:27:26;7.40;;;2.17;;
59207;SDS011;44977;53.132;6.408;2023-07-29T09:32:27;5.97;;;2.08;;
59207;SDS011;44977;53.132;6.408;2023-07-29T09:37:28;4.60;;;1.90;;
59207;SDS011;44977;53.132;6.408;2023-07-29T09:42:30;5.28;;;1.80;;
59207;SDS011;44977;53.132;6.408;2023-07-29T09:47:31;6.00;;;2.08;;
59207;SDS011;44977;53.132;6.408;2023-07-29T09:52:32;4.60;;;1.90;;
59207;SDS011;44977;53.132;6.408;2023-07-29T09:57:32;5.78;;;2.10;;
59207;SDS011;44977;53.132;6.408;2023-07-29T10:02:34;5.85;;;1.80;;
59207;SDS011;44977;53.132;6.408;2023-07-29T10:07:38;4.90;;;1.50;;
59207;SDS011;44977;53.132;6.408;2023-07-29T10:12:40;6.55;;;1.70;;
59207;SDS011;44977;53.132;6.408;2023-07-29T10:17:42;5.03;;;1.80;;
59207;SDS011;44977;53.132;6.408;2023-07-29T10:22:46;6.80;;;1.90;;
59207;SDS011;44977;53.132;6.408;2023-07-29T10:27:48;4.47;;;1.50;;
59207;SDS011;44977;53.132;6.408;2023-07-29T10:32:52;6.68;;;1.80;;
59207;SDS011;44977;53.132;6.408;2023-07-29T10:37:53;5.72;;;2.17;;
59207;SDS011;44977;53.132;6.408;2023-07-29T10:43:09;7.00;;;2.38;;
59207;SDS011;44977;53.132;6.408;2023-07-29T10:48:12;5.70;;;2.03;;
59207;SDS011;44977;53.132;6.408;2023-07-29T10:53:32;7.75;;;2.67;;
59207;SDS011;44977;53.132;6.408;2023-07-29T10:58:33;8.05;;;1.90;;
59207;SDS011;44977;53.132;6.408;2023-07-29T11:03:34;3.85;;;1.33;;
59207;SDS011;44977;53.132;6.408;2023-07-29T11:08:35;4.60;;;1.70;;
59207;SDS011;44977;53.132;6.408;2023-07-29T11:13:36;4.38;;;1.50;;
59207;SDS011;44977;53.132;6.408;2023-07-29T11:18:37;5.07;;;1.67;;
59207;SDS011;44977;53.132;6.408;2023-07-29T11:23:39;6.60;;;1.80;;
59207;SDS011;44977;53.132;6.408;2023-07-29T11:28:40;6.60;;;2.05;;
59207;SDS011;44977;53.132;6.408;2023-07-29T11:33:41;6.93;;;2.20;;
59207;SDS011;44977;53.132;6.408;2023-07-29T11:38:41;6.97;;;1.95;;
59207;SDS011;44977;53.132;6.408;2023-07-29T11:43:43;5.72;;;2.03;;
59207;SDS011;44977;53.132;6.408;2023-07-29T11:48:44;8.25;;;2.28;;
59207;SDS011;44977;53.132;6.408;2023-07-29T11:53:45;7.28;;;2.60;;
59207;SDS011;44977;53.132;6.408;2023-07-29T11:58:45;6.75;;;2.25;;
59207;SDS011;44977;53.132;6.408;2023-07-29T12:03:46;4.70;;;1.90;;
59207;SDS011;44977;53.132;6.408;2023-07-29T12:08:47;5.60;;;2.30;;
59207;SDS011;44977;53.132;6.408;2023-07-29T12:13:48;7.15;;;2.50;;
59207;SDS011;44977;53.132;6.408;2023-07-29T12:18:49;7.82;;;2.33;;
59207;SDS011;44977;53.132;6.408;2023-07-29T12:23:50;6.28;;;2.33;;
59207;SDS011;44977;53.132;6.408;2023-07-29T12:28:51;6.97;;;2.47;;
59207;SDS011;44977;53.132;6.408;2023-07-29T12:33:55;7.38;;;2.35;;
59207;SDS011;44977;53.132;6.408;2023-07-29T12:38:59;8.60;;;2.92;;
59207;SDS011;44977;53.132;6.408;2023-07-29T12:43:59;6.90;;;2.15;;
59207;SDS011;44977;53.132;6.408;2023-07-29T12:49:00;8.57;;;2.33;;
59207;SDS011;44977;53.132;6.408;2023-07-29T12:54:01;7.25;;;2.28;;
59207;SDS011;44977;53.132;6.408;2023-07-29T12:59:03;7.18;;;2.15;;
59207;SDS011;44977;53.132;6.408;2023-07-29T13:04:05;6.25;;;1.98;;
59207;SDS011;44977;53.132;6.408;2023-07-29T13:09:06;6.55;;;2.40;;
59207;SDS011;44977;53.132;6.408;2023-07-29T13:14:06;7.25;;;2.28;;
59207;SDS011;44977;53.132;6.408;2023-07-29T13:19:07;8.15;;;2.78;;
59207;SDS011;44977;53.132;6.408;2023-07-29T13:24:08;8.07;;;2.60;;
59207;SDS011;44977;53.132;6.408;2023-07-29T13:29:08;7.57;;;3.10;;
59207;SDS011;44977;53.132;6.408;2023-07-29T13:34:09;7.85;;;2.00;;
59207;SDS011;44977;53.132;6.408;2023-07-29T13:39:10;7.93;;;2.20;;
59207;SDS011;44977;53.132;6.408;2023-07-29T13:44:10;7.10;;;2.35;;
59207;SDS011;44977;53.132;6.408;2023-07-29T13:49:11;7.20;;;2.45;;
59207;SDS011;44977;53.132;6.408;2023-07-29T13:54:12;6.53;;;2.40;;
59207;SDS011;44977;53.132;6.408;2023-07-29T13:59:12;7.63;;;2.75;;
59207;SDS011;44977;53.132;6.408;2023-07-29T14:04:13;7.45;;;2.75;;
59207;SDS011;44977;53.132;6.408;2023-07-29T14:09:14;7.82;;;2.80;;
59207;SDS011;44977;53.132;6.408;2023-07-29T14:14:14;7.82;;;2.92;;
59207;SDS011;44977;53.132;6.408;2023-07-29T14:19:15;7.95;;;2.60;;
59207;SDS011;44977;53.132;6.408;2023-07-29T14:24:16;6.90;;;2.20;;
59207;SDS011;44977;53.132;6.408;2023-07-29T14:29:17;5.45;;;1.98;;
59207;SDS011;44977;53.132;6.408;2023-07-29T14:34:17;8.70;;;2.20;;
59207;SDS011;44977;53.132;6.408;2023-07-29T14:39:18;8.02;;;2.60;;
59207;SDS011;44977;53.132;6.408;2023-07-29T14:44:19;4.53;;;1.80;;
59207;SDS011;44977;53.132;6.408;2023-07-29T14:49:19;6.00;;;2.10;;
59207;SDS011;44977;53.132;6.408;2023-07-29T14:54:20;4.43;;;1.90;;
59207;SDS011;44977;53.132;6.408;2023-07-29T14:59:21;5.50;;;1.75;;
59207;SDS011;44977;53.132;6.408;2023-07-29T15:04:21;4.47;;;2.03;;
59207;SDS011;44977;53.132;6.408;2023-07-29T15:09:22;4.95;;;1.75;;
59207;SDS011;44977;53.132;6.408;2023-07-29T15:14:23;4.82;;;1.80;;
59207;SDS011;44977;53.132;6.408;2023-07-29T15:19:23;7.38;;;2.22;;
59207;SDS011;44977;53.132;6.408;2023-07-29T15:24:25;5.63;;;1.70;;
59207;SDS011;44977;53.132;6.408;2023-07-29T15:29:25;5.93;;;1.75;;
59207;SDS011;44977;53.132;6.408;2023-07-29T15:34:26;5.05;;;2.25;;
59207;SDS011;44977;53.132;6.408;2023-07-29T15:39:31;6.60;;;1.80;;
59207;SDS011;44977;53.132;6.408;2023-07-29T15:44:32;6.60;;;1.52;;
59207;SDS011;44977;53.132;6.408;2023-07-29T15:49:33;4.68;;;1.52;;
59207;SDS011;44977;53.132;6.408;2023-07-29T15:54:33;6.55;;;1.90;;
59207;SDS011;44977;53.132;6.408;2023-07-29T15:59:34;5.45;;;1.58;;
59207;SDS011;44977;53.132;6.408;2023-07-29T16:04:35;4.38;;;1.40;;
59207;SDS011;44977;53.132;6.408;2023-07-29T16:09:35;5.45;;;1.45;;
59207;SDS011;44977;53.132;6.408;2023-07-29T16:14:36;3.85;;;1.65;;
59207;SDS011;44977;53.132;6.408;2023-07-29T16:19:51;4.85;;;1.30;;
59207;SDS011;44977;53.132;6.408;2023-07-29T16:24:53;3.65;;;1.27;;
59207;SDS011;44977;53.132;6.408;2023-07-29T16:29:54;3.55;;;1.23;;
59207;SDS011;44977;53.132;6.408;2023-07-29T16:34:55;4.60;;;1.38;;
59207;SDS011;44977;53.132;6.408;2023-07-29T16:39:55;4.60;;;1.40;;
59207;SDS011;44977;53.132;6.408;2023-07-29T16:44:56;4.18;;;1.63;;
59207;SDS011;44977;53.132;6.408;2023-07-29T16:49:57;4.85;;;1.63;;
59207;SDS011;44977;53.132;6.408;2023-07-29T16:54:59;3.67;;;1.50;;
59207;SDS011;44977;53.132;6.408;2023-07-29T17:00:00;3.50;;;1.27;;
59207;SDS011;44977;53.132;6.408;2023-07-29T17:05:00;4.38;;;1.20;;
59207;SDS011;44977;53.132;6.408;2023-07-29T17:10:04;3.13;;;1.08;;
59207;SDS011;44977;53.132;6.408;2023-07-29T17:15:05;3.10;;;1.10;;
59207;SDS011;44977;53.132;6.408;2023-07-29T17:20:08;3.10;;;1.00;;
59207;SDS011;44977;53.132;6.408;2023-07-29T17:25:09;4.28;;;1.05;;
59207;SDS011;44977;53.132;6.408;2023-07-29T17:30:11;4.18;;;0.98;;
59207;SDS011;44977;53.132;6.408;2023-07-29T17:35:12;3.17;;;1.08;;
59207;SDS011;44977;53.132;6.408;2023-07-29T17:40:13;3.92;;;1.40;;
59207;SDS011;44977;53.132;6.408;2023-07-29T17:45:15;2.95;;;1.45;;
59207;SDS011;44977;53.132;6.408;2023-07-29T17:50:16;3.50;;;1.30;;
59207;SDS011;44977;53.132;6.408;2023-07-29T17:55:17;4.60;;;1.50;;
59207;SDS011;44977;53.132;6.408;2023-07-29T18:00:17;4.65;;;1.80;;
59207;SDS011;44977;53.132;6.408;2023-07-29T18:05:18;3.25;;;1.58;;
59207;SDS011;44977;53.132;6.408;2023-07-29T18:10:19;3.83;;;1.42;;
59207;SDS011;44977;53.132;6.408;2023-07-29T18:15:19;4.47;;;1.63;;
59207;SDS011;44977;53.132;6.408;2023-07-29T18:20:20;4.60;;;1.90;;
59207;SDS011;44977;53.132;6.408;2023-07-29T18:25:21;6.90;;;2.03;;
59207;SDS011;44977;53.132;6.408;2023-07-29T18:30:21;6.65;;;2.33;;
59207;SDS011;44977;53.132;6.408;2023-07-29T18:35:22;6.10;;;2.30;;
59207;SDS011;44977;53.132;6.408;2023-07-29T18:40:29;6.68;;;2.50;;
59207;SDS011;44977;53.132;6.408;2023-07-29T18:45:29;6.53;;;2.60;;
59207;SDS011;44977;53.132;6.408;2023-07-29T18:50:32;6.10;;;2.70;;
59207;SDS011;44977;53.132;6.408;2023-07-29T18:55:33;6.55;;;2.60;;
59207;SDS011;44977;53.132;6.408;2023-07-29T19:00:34;5.60;;;2.70;;
59207;SDS011;44977;53.132;6.408;2023-07-29T19:05:34;6.45;;;2.60;;
59207;SDS011;44977;53.132;6.408;2023-07-29T19:10:35;7.60;;;3.10;;
59207;SDS011;44977;53.132;6.408;2023-07-29T19:15:36;6.07;;;2.92;;
59207;SDS011;44977;53.132;6.408;2023-07-29T19:20:38;7.45;;;3.60;;
59207;SDS011;44977;53.132;6.408;2023-07-29T19:25:49;7.43;;;3.50;;
59207;SDS011;44977;53.132;6.408;2023-07-29T19:30:51;6.68;;;3.17;;
59207;SDS011;44977;53.132;6.408;2023-07-29T19:35:54;6.38;;;2.97;;
59207;SDS011;44977;53.132;6.408;2023-07-29T19:40:58;8.52;;;3.35;;
59207;SDS011;44977;53.132;6.408;2023-07-29T19:46:00;7.18;;;3.83;;
59207;SDS011;44977;53.132;6.408;2023-07-29T19:51:04;5.72;;;3.20;;
59207;SDS011;44977;53.132;6.408;2023-07-29T19:56:04;8.00;;;3.70;;
59207;SDS011;44977;53.132;6.408;2023-07-29T20:01:05;7.78;;;4.00;;
59207;SDS011;44977;53.132;6.408;2023-07-29T20:06:06;7.97;;;3.80;;
59207;SDS011;44977;53.132;6.408;2023-07-29T20:11:07;7.32;;;3.40;;
59207;SDS011;44977;53.132;6.408;2023-07-29T20:16:07;8.60;;;4.07;;
59207;SDS011;44977;53.132;6.408;2023-07-29T20:21:08;7.88;;;3.90;;
59207;SDS011;44977;53.132;6.408;2023-07-29T20:26:09;8.20;;;3.80;;
59207;SDS011;44977;53.132;6.408;2023-07-29T20:31:10;8.02;;;3.95;;
59207;SDS011;44977;53.132;6.408;2023-07-29T20:36:10;8.45;;;3.58;;
59207;SDS011;44977;53.132;6.408;2023-07-29T20:41:11;7.53;;;3.85;;
59207;SDS011;44977;53.132;6.408;2023-07-29T20:46:22;9.57;;;4.55;;
59207;SDS011;44977;53.132;6.408;2023-07-29T20:51:23;8.63;;;4.65;;
59207;SDS011;44977;53.132;6.408;2023-07-29T20:56:24;8.90;;;4.43;;
59207;SDS011;44977;53.132;6.408;2023-07-29T21:01:26;10.20;;;4.90;;
59207;SDS011;44977;53.132;6.408;2023-07-29T21:06:27;11.40;;;4.30;;
59207;SDS011;44977;53.132;6.408;2023-07-29T21:11:28;8.57;;;4.10;;
59207;SDS011;44977;53.132;6.408;2023-07-29T21:16:29;10.73;;;4.53;;
59207;SDS011;44977;53.132;6.408;2023-07-29T21:21:29;10.20;;;4.55;;
59207;SDS011;44977;53.132;6.408;2023-07-29T21:26:30;10.20;;;4.25;;
59207;SDS011;44977;53.132;6.408;2023-07-29T21:31:31;12.45;;;4.90;;
59207;SDS011;44977;53.132;6.408;2023-07-29T21:36:31;10.50;;;4.70;;
59207;SDS011;44977;53.132;6.408;2023-07-29T21:41:32;10.95;;;4.50;;
59207;SDS011;44977;53.132;6.408;2023-07-29T21:46:35;12.65;;;5.38;;
59207;SDS011;44977;53.132;6.408;2023-07-29T21:51:36;11.77;;;4.93;;
59207;SDS011;44977;53.132;6.408;2023-07-29T21:56:36;13.15;;;5.30;;
59207;SDS011;44977;53.132;6.408;2023-07-29T22:01:37;10.95;;;4.95;;
59207;SDS011;44977;53.132;6.408;2023-07-29T22:06:38;10.55;;;4.85;;
59207;SDS011;44977;53.132;6.408;2023-07-29T22:11:39;12.93;;;5.20;;
59207;SDS011;44977;53.132;6.408;2023-07-29T22:16:39;14.13;;;5.60;;
59207;SDS011;44977;53.132;6.408;2023-07-29T22:21:40;12.73;;;5.80;;
59207;SDS011;44977;53.132;6.408;2023-07-29T22:26:41;13.23;;;5.80;;
59207;SDS011;44977;53.132;6.408;2023-07-29T22:31:43;12.77;;;6.30;;
59207;SDS011;44977;53.132;6.408;2023-07-29T22:36:44;13.93;;;6.15;;
59207;SDS011;44977;53.132;6.408;2023-07-29T22:41:45;12.95;;;6.07;;
59207;SDS011;44977;53.132;6.408;2023-07-29T22:46:45;14.95;;;5.68;;
59207;SDS011;44977;53.132;6.408;2023-07-29T22:51:46;12.68;;;6.22;;
59207;SDS011;44977;53.132;6.408;2023-07-29T22:56:47;13.48;;;6.13;;
59207;SDS011;44977;53.132;6.408;2023-07-29T23:01:48;15.13;;;5.93;;
59207;SDS011;44977;53.132;6.408;2023-07-29T23:06:48;12.73;;;5.85;;
59207;SDS011;44977;53.132;6.408;2023-07-29T23:11:49;13.40;;;6.03;;
59207;SDS011;44977;53.132;6.408;2023-07-29T23:16:51;14.23;;;6.53;;
59207;SDS011;44977;53.132;6.408;2023-07-29T23:21:51;16.00;;;6.40;;
59207;SDS011;44977;53.132;6.408;2023-07-29T23:26:52;16.98;;;6.63;;
59207;SDS011;44977;53.132;6.408;2023-07-29T23:31:53;15.77;;;6.72;;
59207;SDS011;44977;53.132;6.408;2023-07-29T23:36:55;17.48;;;7.20;;
59207;SDS011;44977;53.132;6.408;2023-07-29T23:41:56;16.73;;;6.78;;
59207;SDS011;44977;53.132;6.408;2023-07-29T23:46:56;20.50;;;7.47;;
59207;SDS011;44977;53.132;6.408;2023-07-29T23:51:57;18.27;;;7.45;;
59207;SDS011;44977;53.132;6.408;2023-07-29T23:56:58;16.63;;;6.50;;
